createdAt,value
2023-03-15T00:02:07.272Z,-0.36
2023-03-15T00:04:43.307Z,-0.39
2023-03-15T00:07:13.329Z,-0.41
2023-03-15T00:09:40.919Z,-0.41
2023-03-15T00:12:12.250Z,-0.41
2023-03-15T00:14:39.290Z,-0.45
2023-03-15T00:17:09.647Z,-0.43
2023-03-15T00:19:36.338Z,-0.42
2023-03-15T00:22:03.918Z,-0.40
2023-03-15T00:24:30.570Z,-0.42
2023-03-15T00:27:03.932Z,-0.39
2023-03-15T00:29:33.456Z,-0.38
2023-03-15T00:32:00.128Z,-0.42
2023-03-15T00:34:27.553Z,-0.43
2023-03-15T00:36:56.889Z,-0.45
2023-03-15T00:39:25.927Z,-0.39
2023-03-15T00:41:59.161Z,-0.33
2023-03-15T00:44:32.191Z,-0.41
2023-03-15T00:47:01.440Z,-0.41
2023-03-15T00:49:29.233Z,-0.33
2023-03-15T00:52:18.538Z,-0.37
2023-03-15T00:54:53.219Z,-0.38
2023-03-15T00:57:20.150Z,-0.40
2023-03-15T00:59:52.049Z,-0.41
2023-03-15T01:02:22.710Z,-0.46
2023-03-15T01:04:57.234Z,-0.49
2023-03-15T01:07:24.502Z,-0.54
2023-03-15T01:09:51.242Z,-0.56
2023-03-15T01:12:20.975Z,-0.53
2023-03-15T01:14:50.725Z,-0.56
2023-03-15T01:17:17.410Z,-0.57
2023-03-15T01:19:45.375Z,-0.61
2023-03-15T01:22:21.578Z,-0.66
2023-03-15T01:24:48.323Z,-0.71
2023-03-15T01:27:25.440Z,-0.68
2023-03-15T01:29:52.328Z,-0.71
2023-03-15T01:32:18.940Z,-0.69
2023-03-15T01:34:45.702Z,-0.64
2023-03-15T01:37:15.137Z,-0.67
2023-03-15T01:39:47.760Z,-0.67
2023-03-15T01:42:19.266Z,-0.69
2023-03-15T01:45:11.106Z,-0.70
2023-03-15T01:47:37.731Z,-0.70
2023-03-15T01:50:11.668Z,-0.72
2023-03-15T01:52:43.847Z,-0.73
2023-03-15T01:55:16.697Z,-0.72
2023-03-15T01:58:01.480Z,-0.75
2023-03-15T02:00:28.171Z,-0.80
2023-03-15T02:03:05.560Z,-0.78
2023-03-15T02:05:46.641Z,-0.82
2023-03-15T02:08:18.554Z,-0.88
2023-03-15T02:10:55.358Z,-0.92
2023-03-15T02:13:24.894Z,-0.95
2023-03-15T02:16:00.686Z,-0.95
2023-03-15T02:18:27.853Z,-0.97
2023-03-15T02:21:14.992Z,-1.00
2023-03-15T02:23:41.848Z,-1.03
2023-03-15T02:26:31.710Z,-1.05
2023-03-15T02:28:58.813Z,-1.03
2023-03-15T02:31:30.185Z,-1.10
2023-03-15T02:33:56.908Z,-1.11
2023-03-15T02:36:30.817Z,-1.07
2023-03-15T02:39:03.757Z,-1.05
2023-03-15T02:41:49.701Z,-1.05
2023-03-15T02:44:44.508Z,-0.99
2023-03-15T02:47:19.238Z,-0.95
2023-03-15T02:49:51.067Z,-0.92
2023-03-15T02:52:17.891Z,-0.94
2023-03-15T02:54:44.695Z,-0.94
2023-03-15T02:57:13.130Z,-0.99
2023-03-15T02:59:41.272Z,-1.04
2023-03-15T03:02:11.901Z,-1.05
2023-03-15T03:04:42.322Z,-1.04
2023-03-15T03:07:11.963Z,-1.04
2023-03-15T03:09:38.925Z,-1.00
2023-03-15T03:12:05.901Z,-0.99
2023-03-15T03:14:32.612Z,-0.99
2023-03-15T03:16:59.322Z,-0.98
2023-03-15T03:19:26.157Z,-1.01
2023-03-15T03:21:54.199Z,-1.05
2023-03-15T03:24:26.931Z,-1.09
2023-03-15T03:26:57.963Z,-1.06
2023-03-15T03:29:27.264Z,-1.08
2023-03-15T03:31:54.995Z,-1.00
2023-03-15T03:34:30.152Z,-0.96
2023-03-15T03:36:57.059Z,-0.95
2023-03-15T03:39:23.847Z,-0.94
2023-03-15T03:41:50.912Z,-0.88
2023-03-15T03:44:31.253Z,-0.83
2023-03-15T03:47:05.043Z,-0.80
2023-03-15T03:49:31.679Z,-0.79
2023-03-15T03:52:02.495Z,-0.83
2023-03-15T03:54:29.199Z,-0.86
2023-03-15T03:56:55.823Z,-0.87
2023-03-15T03:59:22.466Z,-0.91
2023-03-15T04:01:51.357Z,-0.95
2023-03-15T04:04:18.016Z,-0.95
2023-03-15T04:06:53.648Z,-0.96
2023-03-15T04:09:22.026Z,-0.97
2023-03-15T04:11:48.645Z,-1.02
2023-03-15T04:14:18.757Z,-1.05
2023-03-15T04:16:45.358Z,-1.10
2023-03-15T04:19:13.013Z,-1.18
2023-03-15T04:21:39.671Z,-1.18
2023-03-15T04:24:07.510Z,-1.21
2023-03-15T04:26:34.758Z,-1.21
2023-03-15T04:29:04.862Z,-1.22
2023-03-15T04:31:37.824Z,-1.21
2023-03-15T04:34:08.448Z,-1.22
2023-03-15T04:36:35.487Z,-1.28
2023-03-15T04:39:06.120Z,-1.27
2023-03-15T04:41:38.901Z,-1.27
2023-03-15T04:44:06.438Z,-1.31
2023-03-15T04:46:34.563Z,-1.30
2023-03-15T04:49:01.886Z,-1.35
2023-03-15T04:51:28.650Z,-1.37
2023-03-15T04:53:55.244Z,-1.39
2023-03-15T04:56:21.972Z,-1.39
2023-03-15T04:58:51.456Z,-1.35
2023-03-15T05:01:18.753Z,-1.35
2023-03-15T05:03:48.682Z,-1.33
2023-03-15T05:06:15.301Z,-1.34
2023-03-15T05:08:41.944Z,-1.32
2023-03-15T05:11:08.712Z,-1.31
2023-03-15T05:13:38.538Z,-1.33
2023-03-15T05:16:06.236Z,-1.34
2023-03-15T05:18:33.764Z,-1.36
2023-03-15T05:21:00.463Z,-1.37
2023-03-15T05:23:27.456Z,-1.40
2023-03-15T05:25:55.720Z,-1.47
2023-03-15T05:28:24.094Z,-1.48
2023-03-15T05:30:52.330Z,-1.48
2023-03-15T05:33:20.028Z,-1.50
2023-03-15T05:35:47.100Z,-1.49
2023-03-15T05:38:15.109Z,-1.46
2023-03-15T05:40:45.006Z,-1.42
2023-03-15T05:43:12.389Z,-1.32
2023-03-15T05:45:52.717Z,-1.22
2023-03-15T05:48:19.443Z,-1.21
2023-03-15T05:50:46.061Z,-1.10
2023-03-15T05:53:12.691Z,-1.08
2023-03-15T05:55:43.339Z,-1.01
2023-03-15T05:58:11.143Z,-0.95
2023-03-15T06:00:41.177Z,-0.84
2023-03-15T06:03:07.852Z,-0.74
2023-03-15T06:05:40.445Z,-0.68
2023-03-15T06:08:07.121Z,-0.58
2023-03-15T06:10:34.269Z,-0.49
2023-03-15T06:13:01.840Z,-0.43
2023-03-15T06:15:28.771Z,-0.38
2023-03-15T06:17:55.394Z,-0.29
2023-03-15T06:20:22.105Z,-0.12
2023-03-15T06:22:48.893Z,0.04
2023-03-15T06:25:15.765Z,0.16
2023-03-15T06:27:42.376Z,0.21
2023-03-15T06:30:09.729Z,0.30
2023-03-15T06:32:36.638Z,0.41
2023-03-15T06:35:05.028Z,0.43
2023-03-15T06:37:35.356Z,0.41
2023-03-15T06:40:09.917Z,0.38
2023-03-15T06:42:36.556Z,0.33
2023-03-15T06:45:10.955Z,0.32
2023-03-15T06:47:46.390Z,0.29
2023-03-15T06:50:13.637Z,0.26
2023-03-15T06:52:43.162Z,0.32
2023-03-15T06:55:19.249Z,0.35
2023-03-15T06:57:46.175Z,0.38
2023-03-15T07:00:16.162Z,0.41
2023-03-15T07:03:00.766Z,0.39
2023-03-15T07:05:27.773Z,0.40
2023-03-15T07:07:54.582Z,0.56
2023-03-15T07:10:30.241Z,0.63
2023-03-15T07:13:00.100Z,0.72
2023-03-15T07:15:26.894Z,0.76
2023-03-15T07:18:03.201Z,0.79
2023-03-15T07:20:39.771Z,0.80
2023-03-15T07:23:06.498Z,0.84
2023-03-15T07:25:52.044Z,0.97
2023-03-15T07:28:28.608Z,1.27
2023-03-15T07:31:02.522Z,1.53
2023-03-15T07:33:34.774Z,2.02
2023-03-15T07:36:04.209Z,2.28
2023-03-15T07:38:31.792Z,2.48
2023-03-15T07:41:08.457Z,2.75
2023-03-15T07:43:40.183Z,2.71
2023-03-15T07:46:07.807Z,2.42
2023-03-15T07:48:36.036Z,2.42
2023-03-15T07:51:17.141Z,2.56
2023-03-15T07:53:47.684Z,2.62
2023-03-15T07:56:21.480Z,2.68
2023-03-15T07:58:53.196Z,2.68
2023-03-15T08:01:21.059Z,2.77
2023-03-15T08:03:55.021Z,2.80
2023-03-15T08:06:34.411Z,2.84
2023-03-15T08:09:08.776Z,2.78
2023-03-15T08:11:46.137Z,2.72
2023-03-15T08:14:15.705Z,2.92
2023-03-15T08:16:49.999Z,2.95
2023-03-15T08:19:18.658Z,3.10
2023-03-15T08:21:46.540Z,3.19
2023-03-15T08:24:24.078Z,3.29
2023-03-15T08:26:51.375Z,3.38
2023-03-15T08:29:22.893Z,3.42
2023-03-15T08:31:52.736Z,3.34
2023-03-15T08:34:41.545Z,3.18
2023-03-15T08:37:12.484Z,3.21
2023-03-15T08:39:47.368Z,3.25
2023-03-15T08:42:23.117Z,3.22
2023-03-15T08:44:53.196Z,3.19
2023-03-15T08:47:23.431Z,3.32
2023-03-15T08:49:50.044Z,3.30
2023-03-15T08:52:18.102Z,3.30
2023-03-15T08:54:44.963Z,3.46
2023-03-15T08:57:12.931Z,3.79
2023-03-15T08:59:53.090Z,4.01
2023-03-15T09:02:19.885Z,3.75
2023-03-15T09:04:56.453Z,3.65
2023-03-15T09:07:29.790Z,3.71
2023-03-15T09:10:00.050Z,3.57
2023-03-15T09:12:28.149Z,3.41
2023-03-15T09:15:08.586Z,3.48
2023-03-15T09:17:35.290Z,3.53
2023-03-15T09:20:05.770Z,3.66
2023-03-15T09:22:39.074Z,3.90
2023-03-15T09:25:07.290Z,3.79
2023-03-15T09:27:34.966Z,3.63
2023-03-15T09:30:01.849Z,3.56
2023-03-15T09:32:28.522Z,3.73
2023-03-15T09:34:59.549Z,3.76
2023-03-15T09:37:26.673Z,4.00
2023-03-15T09:39:53.284Z,3.91
2023-03-15T09:42:51.718Z,3.74
2023-03-15T09:45:37.771Z,3.73
2023-03-15T09:48:21.579Z,3.92
2023-03-15T09:51:15.878Z,4.77
2023-03-15T09:53:58.034Z,5.31
2023-03-15T09:56:33.541Z,5.27
2023-03-15T09:59:02.288Z,4.96
2023-03-15T10:01:40.247Z,4.54
2023-03-15T10:04:42.491Z,4.56
2023-03-15T10:07:24.424Z,4.30
2023-03-15T10:09:51.813Z,4.20
2023-03-15T10:12:30.121Z,4.25
2023-03-15T10:15:15.442Z,4.00
2023-03-15T10:17:57.773Z,3.98
2023-03-15T10:20:42.333Z,4.17
2023-03-15T10:23:19.190Z,4.06
2023-03-15T10:25:46.947Z,4.12
2023-03-15T10:28:37.684Z,4.17
2023-03-15T10:31:22.266Z,4.35
2023-03-15T10:33:53.596Z,4.71
2023-03-15T10:36:25.661Z,5.07
2023-03-15T10:38:58.699Z,4.86
2023-03-15T10:41:36.567Z,4.85
2023-03-15T10:44:06.161Z,4.60
2023-03-15T10:46:34.952Z,4.68
2023-03-15T10:49:16.901Z,4.89
2023-03-15T10:51:48.913Z,5.03
2023-03-15T10:54:32.955Z,4.98
2023-03-15T10:57:16.689Z,5.07
2023-03-15T11:00:07.197Z,5.17
2023-03-15T11:03:03.515Z,5.22
2023-03-15T11:05:45.669Z,5.17
2023-03-15T11:08:18.463Z,5.28
2023-03-15T11:11:04.540Z,5.75
2023-03-15T11:13:35.653Z,5.38
2023-03-15T11:16:07.000Z,5.38
2023-03-15T11:19:03.642Z,5.38
2023-03-15T11:21:46.074Z,4.87
2023-03-15T11:24:26.739Z,4.93
2023-03-15T11:27:06.988Z,4.66
2023-03-15T11:29:35.621Z,4.59
2023-03-15T11:32:12.640Z,4.50
2023-03-15T11:35:11.548Z,4.45
2023-03-15T11:37:50.024Z,4.47
2023-03-15T11:40:48.761Z,4.80
2023-03-15T11:43:45.411Z,5.06
2023-03-15T11:46:37.110Z,6.07
2023-03-15T11:49:42.439Z,5.93
2023-03-15T11:52:13.993Z,6.47
2023-03-15T11:54:47.015Z,6.16
2023-03-15T11:57:40.936Z,5.91
2023-03-15T12:00:35.658Z,5.43
2023-03-15T12:03:33.286Z,5.17
2023-03-15T12:06:14.578Z,5.24
2023-03-15T12:08:57.767Z,5.30
2023-03-15T12:11:24.652Z,5.43
2023-03-15T12:14:02.687Z,5.44
2023-03-15T12:16:44.370Z,5.31
2023-03-15T12:19:16.357Z,5.24
2023-03-15T12:21:58.322Z,4.95
2023-03-15T12:24:37.438Z,4.81
2023-03-15T12:27:23.960Z,4.68
2023-03-15T12:30:02.921Z,5.13
2023-03-15T12:32:59.777Z,5.91
2023-03-15T12:35:37.617Z,6.39
2023-03-15T12:38:16.319Z,6.55
2023-03-15T12:40:57.583Z,7.13
2023-03-15T12:43:45.567Z,7.30
2023-03-15T12:46:39.925Z,7.52
2023-03-15T12:49:32.901Z,7.38
2023-03-15T12:52:11.797Z,7.15
2023-03-15T12:54:44.301Z,8.15
2023-03-15T12:57:21.110Z,8.56
2023-03-15T12:59:55.660Z,8.52
2023-03-15T13:02:43.961Z,8.41
2023-03-15T13:05:29.633Z,7.23
2023-03-15T13:08:27.345Z,7.81
2023-03-15T13:11:21.240Z,7.65
2023-03-15T13:14:20.115Z,8.05
2023-03-15T13:17:17.453Z,8.21
2023-03-15T13:19:49.417Z,7.76
2023-03-15T13:22:36.038Z,7.84
2023-03-15T13:25:09.992Z,7.73
2023-03-15T13:28:01.795Z,7.84
2023-03-15T13:30:38.930Z,7.48
2023-03-15T13:33:16.660Z,8.09
2023-03-15T13:35:49.228Z,7.65
2023-03-15T13:38:35.079Z,8.31
2023-03-15T13:41:04.806Z,8.33
2023-03-15T13:43:44.602Z,7.92
2023-03-15T13:46:11.469Z,8.08
2023-03-15T13:48:44.260Z,8.23
2023-03-15T13:51:22.728Z,7.99
2023-03-15T13:53:56.143Z,7.85
2023-03-15T13:56:48.859Z,7.93
2023-03-15T13:59:19.189Z,7.77
2023-03-15T14:01:51.345Z,7.61
2023-03-15T14:04:22.602Z,7.32
2023-03-15T14:07:05.308Z,6.74
2023-03-15T14:09:35.395Z,6.59
2023-03-15T14:12:04.936Z,6.54
2023-03-15T14:14:55.455Z,6.38
2023-03-15T14:17:34.885Z,6.47
2023-03-15T14:20:09.554Z,6.18
2023-03-15T14:22:42.195Z,6.02
2023-03-15T14:25:21.674Z,6.05
2023-03-15T14:27:49.006Z,6.09
2023-03-15T14:30:24.692Z,6.23
2023-03-15T14:33:00.200Z,6.05
2023-03-15T14:35:46.132Z,6.19
2023-03-15T14:38:29.218Z,6.04
2023-03-15T14:41:19.843Z,5.96
2023-03-15T14:43:46.641Z,5.88
2023-03-15T14:46:13.443Z,6.03
2023-03-15T14:48:40.974Z,6.07
2023-03-15T14:51:13.875Z,6.09
2023-03-15T14:53:51.984Z,6.04
2023-03-15T14:56:21.867Z,5.98
2023-03-15T14:58:58.072Z,6.18
2023-03-15T15:01:27.317Z,6.00
2023-03-15T15:04:10.820Z,6.01
2023-03-15T15:06:39.854Z,6.08
2023-03-15T15:09:12.033Z,5.94
2023-03-15T15:11:43.210Z,6.15
2023-03-15T15:14:13.953Z,6.17
2023-03-15T15:16:47.307Z,6.34
2023-03-15T15:19:20.797Z,6.55
2023-03-15T15:21:53.741Z,6.59
2023-03-15T15:24:22.720Z,6.79
2023-03-15T15:26:51.790Z,6.58
2023-03-15T15:29:26.311Z,6.57
2023-03-15T15:32:00.214Z,6.42
2023-03-15T15:34:26.871Z,6.17
2023-03-15T15:37:00.976Z,6.19
2023-03-15T15:39:33.493Z,6.22
2023-03-15T15:42:00.212Z,6.20
2023-03-15T15:44:32.034Z,6.24
2023-03-15T15:47:06.054Z,6.29
2023-03-15T15:49:33.795Z,6.23
2023-03-15T15:52:01.075Z,6.16
2023-03-15T15:54:36.648Z,6.05
2023-03-15T15:57:04.564Z,6.10
2023-03-15T15:59:32.724Z,5.81
2023-03-15T16:02:02.298Z,5.67
2023-03-15T16:04:29.952Z,5.55
2023-03-15T16:07:05.762Z,5.44
2023-03-15T16:09:37.618Z,5.36
2023-03-15T16:12:13.573Z,5.31
2023-03-15T16:14:49.443Z,5.30
2023-03-15T16:17:24.599Z,5.33
2023-03-15T16:19:54.873Z,5.34
2023-03-15T16:22:27.207Z,5.41
2023-03-15T16:24:58.230Z,5.43
2023-03-15T16:27:27.402Z,5.42
2023-03-15T16:29:55.902Z,5.49
2023-03-15T16:32:42.813Z,5.51
2023-03-15T16:35:16.188Z,5.35
2023-03-15T16:37:49.233Z,5.10
2023-03-15T16:40:26.750Z,4.73
2023-03-15T16:42:54.168Z,4.54
2023-03-15T16:45:21.351Z,4.40
2023-03-15T16:47:57.128Z,4.11
2023-03-15T16:50:31.082Z,4.19
2023-03-15T16:53:04.648Z,4.20
2023-03-15T16:55:35.080Z,4.37
2023-03-15T16:58:04.504Z,4.22
2023-03-15T17:00:31.747Z,3.92
2023-03-15T17:03:05.142Z,3.87
2023-03-15T17:05:33.090Z,3.55
2023-03-15T17:08:04.519Z,3.68
2023-03-15T17:10:33.194Z,3.67
2023-03-15T17:13:07.833Z,3.54
2023-03-15T17:15:34.460Z,3.43
2023-03-15T17:18:09.563Z,3.28
2023-03-15T17:20:39.234Z,3.23
2023-03-15T17:23:09.586Z,3.39
2023-03-15T17:25:36.805Z,3.20
2023-03-15T17:28:04.881Z,3.18
2023-03-15T17:30:34.434Z,3.19
2023-03-15T17:33:04.799Z,3.09
2023-03-15T17:35:34.927Z,3.03
2023-03-15T17:38:04.483Z,2.99
2023-03-15T17:40:36.684Z,2.99
2023-03-15T17:43:10.092Z,2.85
2023-03-15T17:45:36.799Z,2.76
2023-03-15T17:48:07.985Z,2.73
2023-03-15T17:50:35.410Z,2.66
2023-03-15T17:53:05.421Z,2.60
2023-03-15T17:55:40.055Z,2.50
2023-03-15T17:58:12.033Z,2.35
2023-03-15T18:00:45.661Z,2.25
2023-03-15T18:03:22.244Z,2.14
2023-03-15T18:06:01.951Z,2.05
2023-03-15T18:08:31.891Z,1.96
2023-03-15T18:11:00.238Z,1.90
2023-03-15T18:13:27.332Z,1.90
2023-03-15T18:15:53.959Z,1.89
2023-03-15T18:18:29.168Z,1.93
2023-03-15T18:20:55.834Z,1.90
2023-03-15T18:23:22.668Z,1.85
2023-03-15T18:25:49.676Z,1.83
2023-03-15T18:28:19.698Z,1.79
2023-03-15T18:30:46.862Z,1.69
2023-03-15T18:33:20.011Z,1.55
2023-03-15T18:35:46.643Z,1.43
2023-03-15T18:38:13.366Z,1.31
2023-03-15T18:40:40.030Z,1.21
2023-03-15T18:43:07.102Z,1.13
2023-03-15T18:45:40.043Z,1.03
2023-03-15T18:48:07.272Z,0.89
2023-03-15T18:50:34.320Z,0.82
2023-03-15T18:53:06.141Z,0.74
2023-03-15T18:55:33.597Z,0.69
2023-03-15T18:58:00.274Z,0.77
2023-03-15T19:00:29.691Z,0.73
2023-03-15T19:03:04.029Z,0.88
2023-03-15T19:05:33.484Z,1.05
2023-03-15T19:08:00.508Z,1.04
2023-03-15T19:10:30.408Z,1.09
2023-03-15T19:13:00.073Z,1.03
2023-03-15T19:15:26.864Z,0.93
2023-03-15T19:17:58.036Z,0.89
2023-03-15T19:20:24.905Z,0.85
2023-03-15T19:22:52.709Z,0.88
2023-03-15T19:25:20.779Z,0.83
2023-03-15T19:27:47.677Z,0.81
2023-03-15T19:30:18.321Z,0.83
2023-03-15T19:32:47.778Z,0.84
2023-03-15T19:35:15.993Z,0.83
2023-03-15T19:37:47.402Z,0.77
2023-03-15T19:40:15.741Z,0.79
2023-03-15T19:42:46.659Z,0.70
2023-03-15T19:45:13.960Z,0.61
2023-03-15T19:47:40.809Z,0.53
2023-03-15T19:50:08.786Z,0.46
2023-03-15T19:52:38.363Z,0.34
2023-03-15T19:55:09.107Z,0.25
2023-03-15T19:57:35.987Z,0.13
2023-03-15T20:00:03.282Z,-0.02
2023-03-15T20:02:32.651Z,-0.13
2023-03-15T20:04:59.746Z,-0.20
2023-03-15T20:07:26.362Z,-0.29
2023-03-15T20:09:53.887Z,-0.33
2023-03-15T20:12:29.622Z,-0.37
2023-03-15T20:14:56.401Z,-0.40
2023-03-15T20:17:23.024Z,-0.41
2023-03-15T20:19:52.978Z,-0.41
2023-03-15T20:22:23.104Z,-0.49
2023-03-15T20:24:51.018Z,-0.51
2023-03-15T20:27:17.520Z,-0.53
2023-03-15T20:29:44.189Z,-0.63
2023-03-15T20:32:10.917Z,-0.70
2023-03-15T20:34:41.422Z,-0.72
2023-03-15T20:37:08.139Z,-0.73
2023-03-15T20:39:35.163Z,-0.79
2023-03-15T20:42:04.568Z,-0.83
2023-03-15T20:44:32.271Z,-0.96
2023-03-15T20:47:01.692Z,-0.94
2023-03-15T20:49:33.996Z,-0.94
2023-03-15T20:52:01.504Z,-1.00
2023-03-15T20:54:28.534Z,-1.06
2023-03-15T20:56:58.343Z,-1.08
2023-03-15T20:59:25.108Z,-1.13
2023-03-15T21:01:55.446Z,-1.19
2023-03-15T21:04:26.197Z,-1.16
2023-03-15T21:06:52.929Z,-1.21
2023-03-15T21:09:19.790Z,-1.27
2023-03-15T21:11:46.525Z,-1.27
2023-03-15T21:14:15.739Z,-1.30
2023-03-15T21:16:42.595Z,-1.29
2023-03-15T21:19:14.769Z,-1.32
2023-03-15T21:21:44.073Z,-1.36
2023-03-15T21:24:12.385Z,-1.36
2023-03-15T21:26:44.038Z,-1.30
2023-03-15T21:29:15.757Z,-1.30
2023-03-15T21:31:42.498Z,-1.31
2023-03-15T21:34:09.174Z,-1.32
2023-03-15T21:36:38.043Z,-1.28
2023-03-15T21:39:07.683Z,-1.30
2023-03-15T21:41:35.127Z,-1.33
2023-03-15T21:44:01.798Z,-1.27
2023-03-15T21:46:28.958Z,-1.33
2023-03-15T21:48:56.019Z,-1.38
2023-03-15T21:51:23.291Z,-1.38
2023-03-15T21:53:53.894Z,-1.40
2023-03-15T21:56:26.139Z,-1.40
2023-03-15T21:58:54.238Z,-1.45
2023-03-15T22:01:23.797Z,-1.47
2023-03-15T22:03:54.789Z,-1.49
2023-03-15T22:06:24.614Z,-1.47
2023-03-15T22:08:52.751Z,-1.47
2023-03-15T22:11:22.994Z,-1.42
2023-03-15T22:13:52.820Z,-1.39
2023-03-15T22:16:19.468Z,-1.33
2023-03-15T22:18:51.747Z,-1.30
2023-03-15T22:21:20.323Z,-1.30
2023-03-15T22:23:47.167Z,-1.29
2023-03-15T22:26:22.037Z,-1.29
2023-03-15T22:28:52.443Z,-1.29
2023-03-15T22:31:20.043Z,-1.28
2023-03-15T22:33:48.483Z,-1.30
2023-03-15T22:36:17.298Z,-1.29
2023-03-15T22:38:50.034Z,-1.30
2023-03-15T22:41:19.002Z,-1.33
2023-03-15T22:43:48.794Z,-1.36
2023-03-15T22:46:15.443Z,-1.35
2023-03-15T22:48:42.199Z,-1.40
2023-03-15T22:51:11.722Z,-1.43
2023-03-15T22:53:38.349Z,-1.47
2023-03-15T22:56:06.521Z,-1.52
2023-03-15T22:58:36.772Z,-1.59
2023-03-15T23:01:06.752Z,-1.64
2023-03-15T23:03:33.767Z,-1.65
2023-03-15T23:06:00.773Z,-1.67
2023-03-15T23:08:31.086Z,-1.69
2023-03-15T23:11:00.836Z,-1.72
2023-03-15T23:13:30.485Z,-1.74
2023-03-15T23:15:57.358Z,-1.76
2023-03-15T23:18:26.703Z,-1.77
2023-03-15T23:21:05.380Z,-1.82
2023-03-15T23:23:32.094Z,-1.83
2023-03-15T23:26:02.873Z,-1.85
2023-03-15T23:28:32.954Z,-1.83
2023-03-15T23:31:04.317Z,-1.84
2023-03-15T23:33:34.493Z,-1.84
2023-03-15T23:36:05.467Z,-1.83
2023-03-15T23:38:40.775Z,-1.85
2023-03-15T23:41:08.452Z,-1.89
2023-03-15T23:43:35.838Z,-1.90
2023-03-15T23:46:05.126Z,-1.95
2023-03-15T23:48:35.732Z,-1.96
2023-03-15T23:51:05.730Z,-1.98
2023-03-15T23:53:32.865Z,-1.99
2023-03-15T23:56:00.021Z,-2.03
2023-03-15T23:58:26.754Z,-2.09
